sensor_id;sensor_type;location;lat;lon;timestamp;temperature;humidity
18794;DHT22;29610;49.022;12.114;2022-12-18T00:00:22;-4.20;99.90
18794;DHT22;29610;49.022;12.114;2022-12-18T00:02:55;-4.10;99.90
18794;DHT22;29610;49.022;12.114;2022-12-18T00:05:24;-4.10;99.90
18794;DHT22;29610;49.022;12.114;2022-12-18T00:07:52;-4.10;99.90
18794;DHT22;29610;49.022;12.114;2022-12-18T00:10:21;-4.90;99.90
18794;DHT22;29610;49.022;12.114;2022-12-18T00:12:50;-4.10;99.90
18794;DHT22;29610;49.022;12.114;2022-12-18T00:15:18;-4.10;99.90
18794;DHT22;29610;49.022;12.114;2022-12-18T00:17:47;-4.10;99.90
18794;DHT22;29610;49.022;12.114;2022-12-18T00:20:17;-4.10;99.90
18794;DHT22;29610;49.022;12.114;2022-12-18T00:22:52;-4.10;99.90
18794;DHT22;29610;49.022;12.114;2022-12-18T00:25:21;-4.00;99.90
18794;DHT22;29610;49.022;12.114;2022-12-18T00:27:50;-4.00;99.90
18794;DHT22;29610;49.022;12.114;2022-12-18T00:30:19;-4.10;99.90
18794;DHT22;29610;49.022;12.114;2022-12-18T00:32:47;-4.00;99.90
18794;DHT22;29610;49.022;12.114;2022-12-18T00:35:18;-4.00;99.90
18794;DHT22;29610;49.022;12.114;2022-12-18T00:37:46;-3.90;99.90
18794;DHT22;29610;49.022;12.114;2022-12-18T00:40:15;-4.00;99.90
18794;DHT22;29610;49.022;12.114;2022-12-18T00:42:44;-4.00;99.90
18794;DHT22;29610;49.022;12.114;2022-12-18T00:45:24;-4.00;99.90
18794;DHT22;29610;49.022;12.114;2022-12-18T00:47:53;-3.90;99.90
18794;DHT22;29610;49.022;12.114;2022-12-18T00:50:25;-3.90;99.90
18794;DHT22;29610;49.022;12.114;2022-12-18T00:52:54;-3.90;99.90
18794;DHT22;29610;49.022;12.114;2022-12-18T00:55:22;-3.90;99.90
18794;DHT22;29610;49.022;12.114;2022-12-18T00:57:51;-4.00;99.90
18794;DHT22;29610;49.022;12.114;2022-12-18T01:00:20;-4.00;99.90
18794;DHT22;29610;49.022;12.114;2022-12-18T01:02:49;-4.00;99.90
18794;DHT22;29610;49.022;12.114;2022-12-18T01:05:18;-4.00;99.90
18794;DHT22;29610;49.022;12.114;2022-12-18T01:07:48;-3.90;99.90
18794;DHT22;29610;49.022;12.114;2022-12-18T01:10:17;-3.90;99.90
18794;DHT22;29610;49.022;12.114;2022-12-18T01:12:46;-3.90;99.90
18794;DHT22;29610;49.022;12.114;2022-12-18T01:15:18;-3.90;99.90
18794;DHT22;29610;49.022;12.114;2022-12-18T01:17:48;-3.90;99.90
18794;DHT22;29610;49.022;12.114;2022-12-18T01:20:19;-3.90;99.90
18794;DHT22;29610;49.022;12.114;2022-12-18T01:22:50;-3.80;99.90
18794;DHT22;29610;49.022;12.114;2022-12-18T01:25:18;-3.80;99.90
18794;DHT22;29610;49.022;12.114;2022-12-18T01:27:47;-3.80;99.90
18794;DHT22;29610;49.022;12.114;2022-12-18T01:30:15;-3.80;99.90
18794;DHT22;29610;49.022;12.114;2022-12-18T01:32:45;-3.90;99.90
18794;DHT22;29610;49.022;12.114;2022-12-18T01:35:13;-4.00;99.90
18794;DHT22;29610;49.022;12.114;2022-12-18T01:37:42;-4.00;99.90
18794;DHT22;29610;49.022;12.114;2022-12-18T01:40:12;-4.10;99.90
18794;DHT22;29610;49.022;12.114;2022-12-18T01:42:41;-4.10;99.90
18794;DHT22;29610;49.022;12.114;2022-12-18T01:45:25;-4.20;99.90
18794;DHT22;29610;49.022;12.114;2022-12-18T01:47:57;-4.10;99.90
18794;DHT22;29610;49.022;12.114;2022-12-18T01:50:31;-4.10;99.90
18794;DHT22;29610;49.022;12.114;2022-12-18T01:53:06;-4.10;99.90
18794;DHT22;29610;49.022;12.114;2022-12-18T01:55:43;-4.40;99.90
18794;DHT22;29610;49.022;12.114;2022-12-18T01:58:15;-4.00;99.90
18794;DHT22;29610;49.022;12.114;2022-12-18T02:00:45;-4.00;99.90
18794;DHT22;29610;49.022;12.114;2022-12-18T02:03:14;-3.90;99.90
18794;DHT22;29610;49.022;12.114;2022-12-18T02:05:48;-4.00;99.90
18794;DHT22;29610;49.022;12.114;2022-12-18T02:08:30;-4.00;99.90
18794;DHT22;29610;49.022;12.114;2022-12-18T02:11:10;-3.90;99.90
18794;DHT22;29610;49.022;12.114;2022-12-18T02:13:50;-3.90;99.90
18794;DHT22;29610;49.022;12.114;2022-12-18T02:16:32;-3.90;99.90
18794;DHT22;29610;49.022;12.114;2022-12-18T02:19:18;-3.80;99.90
18794;DHT22;29610;49.022;12.114;2022-12-18T02:22:03;-3.80;99.90
18794;DHT22;29610;49.022;12.114;2022-12-18T02:24:47;-3.90;99.90
18794;DHT22;29610;49.022;12.114;2022-12-18T02:27:30;-3.80;99.90
18794;DHT22;29610;49.022;12.114;2022-12-18T02:30:03;-3.70;99.90
18794;DHT22;29610;49.022;12.114;2022-12-18T02:32:39;-3.70;99.90
18794;DHT22;29610;49.022;12.114;2022-12-18T02:35:17;-3.80;99.90
18794;DHT22;29610;49.022;12.114;2022-12-18T02:37:53;-3.80;99.90
18794;DHT22;29610;49.022;12.114;2022-12-18T02:40:24;-3.90;99.90
18794;DHT22;29610;49.022;12.114;2022-12-18T02:43:02;-3.80;99.90
18794;DHT22;29610;49.022;12.114;2022-12-18T02:45:35;-3.80;99.90
18794;DHT22;29610;49.022;12.114;2022-12-18T02:48:04;-3.80;99.90
18794;DHT22;29610;49.022;12.114;2022-12-18T02:50:35;-3.80;99.90
18794;DHT22;29610;49.022;12.114;2022-12-18T02:53:16;-3.70;99.90
18794;DHT22;29610;49.022;12.114;2022-12-18T02:55:58;-3.60;99.90
18794;DHT22;29610;49.022;12.114;2022-12-18T02:58:42;-3.70;99.90
18794;DHT22;29610;49.022;12.114;2022-12-18T03:01:34;-3.70;99.90
18794;DHT22;29610;49.022;12.114;2022-12-18T03:04:13;-3.70;99.90
18794;DHT22;29610;49.022;12.114;2022-12-18T03:06:49;-3.70;99.90
18794;DHT22;29610;49.022;12.114;2022-12-18T03:09:27;-3.70;99.90
18794;DHT22;29610;49.022;12.114;2022-12-18T03:12:04;-3.70;99.90
18794;DHT22;29610;49.022;12.114;2022-12-18T03:14:59;-3.80;99.90
18794;DHT22;29610;49.022;12.114;2022-12-18T03:17:33;-3.80;99.90
18794;DHT22;29610;49.022;12.114;2022-12-18T03:20:05;-3.80;99.90
18794;DHT22;29610;49.022;12.114;2022-12-18T03:22:38;-3.80;99.90
18794;DHT22;29610;49.022;12.114;2022-12-18T03:25:13;-3.80;99.90
18794;DHT22;29610;49.022;12.114;2022-12-18T03:27:47;-3.90;99.90
18794;DHT22;29610;49.022;12.114;2022-12-18T03:30:21;-3.90;99.90
18794;DHT22;29610;49.022;12.114;2022-12-18T03:32:53;-3.90;99.90
18794;DHT22;29610;49.022;12.114;2022-12-18T03:35:31;-3.90;99.90
18794;DHT22;29610;49.022;12.114;2022-12-18T03:38:04;-3.90;99.90
18794;DHT22;29610;49.022;12.114;2022-12-18T03:40:44;-3.90;99.90
18794;DHT22;29610;49.022;12.114;2022-12-18T03:43:29;-3.90;99.90
18794;DHT22;29610;49.022;12.114;2022-12-18T03:46:14;-3.90;99.90
18794;DHT22;29610;49.022;12.114;2022-12-18T03:48:51;-3.90;99.90
18794;DHT22;29610;49.022;12.114;2022-12-18T03:51:28;-3.90;99.90
18794;DHT22;29610;49.022;12.114;2022-12-18T03:54:06;-3.90;99.90
18794;DHT22;29610;49.022;12.114;2022-12-18T03:56:45;-4.60;99.90
18794;DHT22;29610;49.022;12.114;2022-12-18T03:59:21;-4.00;99.90
18794;DHT22;29610;49.022;12.114;2022-12-18T04:01:54;-4.00;99.90
18794;DHT22;29610;49.022;12.114;2022-12-18T04:04:27;-4.00;99.90
18794;DHT22;29610;49.022;12.114;2022-12-18T04:07:00;-4.00;99.90
18794;DHT22;29610;49.022;12.114;2022-12-18T04:09:34;-4.00;99.90
18794;DHT22;29610;49.022;12.114;2022-12-18T04:12:04;-4.00;99.90
18794;DHT22;29610;49.022;12.114;2022-12-18T04:14:34;-4.00;99.90
18794;DHT22;29610;49.022;12.114;2022-12-18T04:17:08;-4.00;99.90
18794;DHT22;29610;49.022;12.114;2022-12-18T04:19:37;-3.90;99.90
18794;DHT22;29610;49.022;12.114;2022-12-18T04:22:09;-4.00;99.90
18794;DHT22;29610;49.022;12.114;2022-12-18T04:24:43;-4.00;99.90
18794;DHT22;29610;49.022;12.114;2022-12-18T04:27:20;-4.00;99.90
18794;DHT22;29610;49.022;12.114;2022-12-18T04:29:50;-4.00;99.90
18794;DHT22;29610;49.022;12.114;2022-12-18T04:32:20;-4.00;99.90
18794;DHT22;29610;49.022;12.114;2022-12-18T04:34:49;-4.10;99.90
18794;DHT22;29610;49.022;12.114;2022-12-18T04:37:17;-4.00;99.90
18794;DHT22;29610;49.022;12.114;2022-12-18T04:39:49;-4.00;99.90
18794;DHT22;29610;49.022;12.114;2022-12-18T04:42:28;-4.00;99.90
18794;DHT22;29610;49.022;12.114;2022-12-18T04:44:56;-4.00;99.90
18794;DHT22;29610;49.022;12.114;2022-12-18T04:47:26;-4.10;99.90
18794;DHT22;29610;49.022;12.114;2022-12-18T04:49:55;-4.10;99.90
18794;DHT22;29610;49.022;12.114;2022-12-18T04:52:24;-4.10;99.90
18794;DHT22;29610;49.022;12.114;2022-12-18T04:54:52;-4.10;99.90
18794;DHT22;29610;49.022;12.114;2022-12-18T04:57:21;-4.00;99.90
18794;DHT22;29610;49.022;12.114;2022-12-18T04:59:50;-4.10;99.90
18794;DHT22;29610;49.022;12.114;2022-12-18T05:02:19;-4.10;99.90
18794;DHT22;29610;49.022;12.114;2022-12-18T05:04:50;-4.10;99.90
18794;DHT22;29610;49.022;12.114;2022-12-18T05:07:18;-4.10;99.90
18794;DHT22;29610;49.022;12.114;2022-12-18T05:09:47;-4.10;99.90
18794;DHT22;29610;49.022;12.114;2022-12-18T05:12:15;-4.20;99.90
18794;DHT22;29610;49.022;12.114;2022-12-18T05:14:49;-4.20;99.90
18794;DHT22;29610;49.022;12.114;2022-12-18T05:17:18;-4.20;99.90
18794;DHT22;29610;49.022;12.114;2022-12-18T05:19:46;-4.20;99.90
18794;DHT22;29610;49.022;12.114;2022-12-18T05:22:16;-4.20;99.90
18794;DHT22;29610;49.022;12.114;2022-12-18T05:24:45;-4.20;99.90
18794;DHT22;29610;49.022;12.114;2022-12-18T05:27:13;-4.20;99.90
18794;DHT22;29610;49.022;12.114;2022-12-18T05:29:42;-4.30;99.90
18794;DHT22;29610;49.022;12.114;2022-12-18T05:32:10;-4.20;99.90
18794;DHT22;29610;49.022;12.114;2022-12-18T05:34:39;-4.30;99.90
18794;DHT22;29610;49.022;12.114;2022-12-18T05:37:07;-4.30;99.90
18794;DHT22;29610;49.022;12.114;2022-12-18T05:39:37;-4.30;99.90
18794;DHT22;29610;49.022;12.114;2022-12-18T05:42:06;-4.30;99.90
18794;DHT22;29610;49.022;12.114;2022-12-18T05:44:34;-4.40;99.90
18794;DHT22;29610;49.022;12.114;2022-12-18T05:47:03;-4.40;99.90
18794;DHT22;29610;49.022;12.114;2022-12-18T05:49:32;-4.50;99.90
18794;DHT22;29610;49.022;12.114;2022-12-18T05:52:01;-4.40;99.90
18794;DHT22;29610;49.022;12.114;2022-12-18T05:54:31;-4.40;99.90
18794;DHT22;29610;49.022;12.114;2022-12-18T05:57:01;-4.40;99.90
18794;DHT22;29610;49.022;12.114;2022-12-18T05:59:30;-4.40;99.90
18794;DHT22;29610;49.022;12.114;2022-12-18T06:01:58;-4.40;99.90
18794;DHT22;29610;49.022;12.114;2022-12-18T06:04:27;-4.40;99.90
18794;DHT22;29610;49.022;12.114;2022-12-18T06:07:03;-4.40;99.90
18794;DHT22;29610;49.022;12.114;2022-12-18T06:09:32;-4.50;99.90
18794;DHT22;29610;49.022;12.114;2022-12-18T06:12:02;-4.50;99.90
18794;DHT22;29610;49.022;12.114;2022-12-18T06:14:30;-4.60;99.90
18794;DHT22;29610;49.022;12.114;2022-12-18T06:16:59;-4.70;99.90
18794;DHT22;29610;49.022;12.114;2022-12-18T06:19:27;-4.70;99.90
18794;DHT22;29610;49.022;12.114;2022-12-18T06:21:56;-4.70;99.90
18794;DHT22;29610;49.022;12.114;2022-12-18T06:24:26;-4.70;99.90
18794;DHT22;29610;49.022;12.114;2022-12-18T06:26:55;-4.80;99.90
18794;DHT22;29610;49.022;12.114;2022-12-18T06:29:25;-4.80;99.90
18794;DHT22;29610;49.022;12.114;2022-12-18T06:31:53;-4.80;99.90
18794;DHT22;29610;49.022;12.114;2022-12-18T06:34:22;-4.80;99.90
18794;DHT22;29610;49.022;12.114;2022-12-18T06:36:51;-4.90;99.90
18794;DHT22;29610;49.022;12.114;2022-12-18T06:39:19;-4.90;99.90
18794;DHT22;29610;49.022;12.114;2022-12-18T06:41:48;-4.80;99.90
18794;DHT22;29610;49.022;12.114;2022-12-18T06:44:17;-4.80;99.90
18794;DHT22;29610;49.022;12.114;2022-12-18T06:46:47;-4.80;99.90
18794;DHT22;29610;49.022;12.114;2022-12-18T06:49:15;-4.80;99.90
18794;DHT22;29610;49.022;12.114;2022-12-18T06:51:44;-4.70;99.90
18794;DHT22;29610;49.022;12.114;2022-12-18T06:54:13;-4.80;99.90
18794;DHT22;29610;49.022;12.114;2022-12-18T06:56:42;-4.70;99.90
18794;DHT22;29610;49.022;12.114;2022-12-18T06:59:10;-4.70;99.90
18794;DHT22;29610;49.022;12.114;2022-12-18T07:01:40;-4.70;99.90
18794;DHT22;29610;49.022;12.114;2022-12-18T07:04:10;-4.70;99.90
18794;DHT22;29610;49.022;12.114;2022-12-18T07:06:39;-4.70;99.90
18794;DHT22;29610;49.022;12.114;2022-12-18T07:09:07;-4.60;99.90
18794;DHT22;29610;49.022;12.114;2022-12-18T07:11:36;-4.70;99.90
18794;DHT22;29610;49.022;12.114;2022-12-18T07:14:05;-4.70;99.90
18794;DHT22;29610;49.022;12.114;2022-12-18T07:16:33;-4.30;99.90
18794;DHT22;29610;49.022;12.114;2022-12-18T07:19:02;-4.60;99.90
18794;DHT22;29610;49.022;12.114;2022-12-18T07:21:32;-4.60;99.90
18794;DHT22;29610;49.022;12.114;2022-12-18T07:24:01;-4.60;99.90
18794;DHT22;29610;49.022;12.114;2022-12-18T07:26:31;-4.50;99.90
18794;DHT22;29610;49.022;12.114;2022-12-18T07:29:00;-4.50;99.90
18794;DHT22;29610;49.022;12.114;2022-12-18T07:31:29;-4.50;99.90
18794;DHT22;29610;49.022;12.114;2022-12-18T07:33:58;-4.40;99.90
18794;DHT22;29610;49.022;12.114;2022-12-18T07:36:27;-4.00;99.90
18794;DHT22;29610;49.022;12.114;2022-12-18T07:38:57;-4.50;99.90
18794;DHT22;29610;49.022;12.114;2022-12-18T07:41:25;-4.40;99.90
18794;DHT22;29610;49.022;12.114;2022-12-18T07:43:54;-4.40;99.90
18794;DHT22;29610;49.022;12.114;2022-12-18T07:46:23;-4.50;99.90
18794;DHT22;29610;49.022;12.114;2022-12-18T07:48:52;-4.50;99.90
18794;DHT22;29610;49.022;12.114;2022-12-18T07:51:20;-4.40;99.90
18794;DHT22;29610;49.022;12.114;2022-12-18T07:53:49;-4.40;99.90
18794;DHT22;29610;49.022;12.114;2022-12-18T07:56:20;-4.40;99.90
18794;DHT22;29610;49.022;12.114;2022-12-18T07:58:54;-4.30;99.90
18794;DHT22;29610;49.022;12.114;2022-12-18T08:01:24;-4.40;99.90
18794;DHT22;29610;49.022;12.114;2022-12-18T08:03:53;-4.40;99.90
18794;DHT22;29610;49.022;12.114;2022-12-18T08:06:22;-4.30;99.90
18794;DHT22;29610;49.022;12.114;2022-12-18T08:08:52;-4.30;99.90
18794;DHT22;29610;49.022;12.114;2022-12-18T08:11:25;-4.20;99.90
18794;DHT22;29610;49.022;12.114;2022-12-18T08:13:55;-4.30;99.90
18794;DHT22;29610;49.022;12.114;2022-12-18T08:16:24;-4.20;99.90
18794;DHT22;29610;49.022;12.114;2022-12-18T08:18:54;-4.10;99.90
18794;DHT22;29610;49.022;12.114;2022-12-18T08:21:24;-4.20;99.90
18794;DHT22;29610;49.022;12.114;2022-12-18T08:23:58;-4.20;99.90
18794;DHT22;29610;49.022;12.114;2022-12-18T08:26:31;-4.20;99.90
18794;DHT22;29610;49.022;12.114;2022-12-18T08:29:00;-4.20;99.90
18794;DHT22;29610;49.022;12.114;2022-12-18T08:31:30;-4.20;99.90
18794;DHT22;29610;49.022;12.114;2022-12-18T08:34:00;-4.20;99.90
18794;DHT22;29610;49.022;12.114;2022-12-18T08:36:29;-4.10;99.90
18794;DHT22;29610;49.022;12.114;2022-12-18T08:38:57;-4.00;99.90
18794;DHT22;29610;49.022;12.114;2022-12-18T08:41:26;-4.00;99.90
18794;DHT22;29610;49.022;12.114;2022-12-18T08:43:56;-3.90;99.90
18794;DHT22;29610;49.022;12.114;2022-12-18T08:46:43;-3.90;99.90
18794;DHT22;29610;49.022;12.114;2022-12-18T08:49:12;-4.00;99.90
18794;DHT22;29610;49.022;12.114;2022-12-18T08:51:41;-4.00;99.90
18794;DHT22;29610;49.022;12.114;2022-12-18T08:54:11;-4.00;99.90
18794;DHT22;29610;49.022;12.114;2022-12-18T08:56:40;-3.90;99.90
18794;DHT22;29610;49.022;12.114;2022-12-18T08:59:10;-3.70;99.90
18794;DHT22;29610;49.022;12.114;2022-12-18T09:01:46;-3.70;99.90
18794;DHT22;29610;49.022;12.114;2022-12-18T09:04:15;-3.70;99.90
18794;DHT22;29610;49.022;12.114;2022-12-18T09:06:44;-3.60;99.90
18794;DHT22;29610;49.022;12.114;2022-12-18T09:09:13;-3.70;99.90
18794;DHT22;29610;49.022;12.114;2022-12-18T09:11:42;-3.70;99.90
18794;DHT22;29610;49.022;12.114;2022-12-18T09:14:12;-3.60;99.90
18794;DHT22;29610;49.022;12.114;2022-12-18T09:16:41;-3.50;99.90
18794;DHT22;29610;49.022;12.114;2022-12-18T09:19:10;-3.40;99.90
18794;DHT22;29610;49.022;12.114;2022-12-18T09:21:39;-3.50;99.90
18794;DHT22;29610;49.022;12.114;2022-12-18T09:24:14;-3.60;99.90
18794;DHT22;29610;49.022;12.114;2022-12-18T09:26:44;-3.50;99.90
18794;DHT22;29610;49.022;12.114;2022-12-18T09:29:15;-3.20;99.90
18794;DHT22;29610;49.022;12.114;2022-12-18T09:31:45;-3.40;99.90
18794;DHT22;29610;49.022;12.114;2022-12-18T09:34:14;-3.50;99.90
18794;DHT22;29610;49.022;12.114;2022-12-18T09:36:43;-3.30;99.90
18794;DHT22;29610;49.022;12.114;2022-12-18T09:39:13;-3.30;99.90
18794;DHT22;29610;49.022;12.114;2022-12-18T09:41:45;-3.30;99.90
18794;DHT22;29610;49.022;12.114;2022-12-18T09:44:24;-3.40;99.90
18794;DHT22;29610;49.022;12.114;2022-12-18T09:47:03;-3.50;99.90
18794;DHT22;29610;49.022;12.114;2022-12-18T09:49:40;-3.40;99.90
18794;DHT22;29610;49.022;12.114;2022-12-18T09:52:16;-3.40;99.90
18794;DHT22;29610;49.022;12.114;2022-12-18T09:54:53;-3.40;99.90
18794;DHT22;29610;49.022;12.114;2022-12-18T09:57:26;-3.40;99.90
18794;DHT22;29610;49.022;12.114;2022-12-18T09:59:59;-3.60;99.90
18794;DHT22;29610;49.022;12.114;2022-12-18T10:02:37;-3.60;99.90
18794;DHT22;29610;49.022;12.114;2022-12-18T10:05:12;-3.20;99.90
18794;DHT22;29610;49.022;12.114;2022-12-18T10:07:58;-3.40;99.90
18794;DHT22;29610;49.022;12.114;2022-12-18T10:10:38;-3.40;99.90
18794;DHT22;29610;49.022;12.114;2022-12-18T10:13:21;-3.30;99.90
18794;DHT22;29610;49.022;12.114;2022-12-18T10:16:08;-3.30;99.90
18794;DHT22;29610;49.022;12.114;2022-12-18T10:19:00;-3.30;99.90
18794;DHT22;29610;49.022;12.114;2022-12-18T10:21:45;-3.20;99.90
18794;DHT22;29610;49.022;12.114;2022-12-18T10:24:25;-3.10;99.90
18794;DHT22;29610;49.022;12.114;2022-12-18T10:27:11;-3.10;99.90
18794;DHT22;29610;49.022;12.114;2022-12-18T10:29:44;-3.10;99.90
18794;DHT22;29610;49.022;12.114;2022-12-18T10:32:18;-3.20;99.90
18794;DHT22;29610;49.022;12.114;2022-12-18T10:34:50;-3.20;99.90
18794;DHT22;29610;49.022;12.114;2022-12-18T10:37:29;-3.20;99.90
18794;DHT22;29610;49.022;12.114;2022-12-18T10:40:14;-3.20;99.90
18794;DHT22;29610;49.022;12.114;2022-12-18T10:43:04;-3.10;99.90
18794;DHT22;29610;49.022;12.114;2022-12-18T10:45:34;-3.20;99.90
18794;DHT22;29610;49.022;12.114;2022-12-18T10:48:17;-3.20;99.90
18794;DHT22;29610;49.022;12.114;2022-12-18T10:50:49;-3.10;99.90
18794;DHT22;29610;49.022;12.114;2022-12-18T10:53:41;-3.20;99.90
18794;DHT22;29610;49.022;12.114;2022-12-18T10:56:11;-3.40;99.90
18794;DHT22;29610;49.022;12.114;2022-12-18T10:58:40;-3.20;99.90
18794;DHT22;29610;49.022;12.114;2022-12-18T11:01:11;-3.30;99.90
18794;DHT22;29610;49.022;12.114;2022-12-18T11:03:46;-3.10;99.90
18794;DHT22;29610;49.022;12.114;2022-12-18T11:06:29;-3.00;99.90
18794;DHT22;29610;49.022;12.114;2022-12-18T11:09:04;-3.00;99.90
18794;DHT22;29610;49.022;12.114;2022-12-18T11:11:48;-2.90;99.90
18794;DHT22;29610;49.022;12.114;2022-12-18T11:14:22;-3.00;99.90
18794;DHT22;29610;49.022;12.114;2022-12-18T11:16:54;-3.20;99.90
18794;DHT22;29610;49.022;12.114;2022-12-18T11:19:52;-3.00;99.90
18794;DHT22;29610;49.022;12.114;2022-12-18T11:22:25;-3.10;99.90
18794;DHT22;29610;49.022;12.114;2022-12-18T11:24:58;-3.20;99.90
18794;DHT22;29610;49.022;12.114;2022-12-18T11:27:51;-3.00;99.90
18794;DHT22;29610;49.022;12.114;2022-12-18T11:30:25;-3.00;99.90
18794;DHT22;29610;49.022;12.114;2022-12-18T11:33:04;-2.80;99.90
18794;DHT22;29610;49.022;12.114;2022-12-18T11:35:44;-2.70;99.90
18794;DHT22;29610;49.022;12.114;2022-12-18T11:38:21;-2.70;99.90
18794;DHT22;29610;49.022;12.114;2022-12-18T11:40:57;-2.60;99.90
18794;DHT22;29610;49.022;12.114;2022-12-18T11:43:33;-2.60;99.90
18794;DHT22;29610;49.022;12.114;2022-12-18T11:46:10;-2.90;99.90
18794;DHT22;29610;49.022;12.114;2022-12-18T11:48:50;-2.90;99.90
18794;DHT22;29610;49.022;12.114;2022-12-18T11:51:33;-2.60;99.90
18794;DHT22;29610;49.022;12.114;2022-12-18T11:54:11;-2.30;99.90
18794;DHT22;29610;49.022;12.114;2022-12-18T11:56:46;-2.30;99.90
18794;DHT22;29610;49.022;12.114;2022-12-18T11:59:29;-1.40;99.90
18794;DHT22;29610;49.022;12.114;2022-12-18T12:02:22;-2.10;99.90
18794;DHT22;29610;49.022;12.114;2022-12-18T12:05:18;-2.30;99.90
18794;DHT22;29610;49.022;12.114;2022-12-18T12:07:59;-2.30;99.90
18794;DHT22;29610;49.022;12.114;2022-12-18T12:10:46;-2.30;99.90
18794;DHT22;29610;49.022;12.114;2022-12-18T12:13:35;-2.20;99.90
18794;DHT22;29610;49.022;12.114;2022-12-18T12:16:17;-2.20;99.90
18794;DHT22;29610;49.022;12.114;2022-12-18T12:19:04;-2.00;99.90
18794;DHT22;29610;49.022;12.114;2022-12-18T12:21:49;-1.90;99.90
18794;DHT22;29610;49.022;12.114;2022-12-18T12:24:32;-2.20;99.90
18794;DHT22;29610;49.022;12.114;2022-12-18T12:27:15;-2.20;99.90
18794;DHT22;29610;49.022;12.114;2022-12-18T12:30:00;-2.40;99.90
18794;DHT22;29610;49.022;12.114;2022-12-18T12:32:49;-2.60;99.90
18794;DHT22;29610;49.022;12.114;2022-12-18T12:35:35;-2.40;99.90
18794;DHT22;29610;49.022;12.114;2022-12-18T12:38:16;-2.20;99.90
18794;DHT22;29610;49.022;12.114;2022-12-18T12:40:56;-2.10;99.90
18794;DHT22;29610;49.022;12.114;2022-12-18T12:43:35;-2.10;99.90
18794;DHT22;29610;49.022;12.114;2022-12-18T12:46:18;-2.00;99.90
18794;DHT22;29610;49.022;12.114;2022-12-18T12:48:54;-2.10;99.90
18794;DHT22;29610;49.022;12.114;2022-12-18T12:51:26;-2.00;99.90
18794;DHT22;29610;49.022;12.114;2022-12-18T12:53:59;-2.20;99.90
18794;DHT22;29610;49.022;12.114;2022-12-18T12:56:38;-2.30;99.90
18794;DHT22;29610;49.022;12.114;2022-12-18T12:59:22;-2.40;99.90
18794;DHT22;29610;49.022;12.114;2022-12-18T13:02:04;-2.20;99.90
18794;DHT22;29610;49.022;12.114;2022-12-18T13:04:48;-2.30;99.90
18794;DHT22;29610;49.022;12.114;2022-12-18T13:07:27;-2.00;99.90
18794;DHT22;29610;49.022;12.114;2022-12-18T13:13:06;-2.00;99.90
18794;DHT22;29610;49.022;12.114;2022-12-18T13:15:39;-2.10;99.90
18794;DHT22;29610;49.022;12.114;2022-12-18T13:18:16;-2.10;99.90
18794;DHT22;29610;49.022;12.114;2022-12-18T13:20:49;-1.90;99.90
18794;DHT22;29610;49.022;12.114;2022-12-18T13:23:31;-2.20;99.90
18794;DHT22;29610;49.022;12.114;2022-12-18T13:26:29;-2.10;99.90
18794;DHT22;29610;49.022;12.114;2022-12-18T13:29:03;-2.00;99.90
18794;DHT22;29610;49.022;12.114;2022-12-18T13:32:15;-1.90;99.80
18794;DHT22;29610;49.022;12.114;2022-12-18T13:34:51;-1.80;99.60
18794;DHT22;29610;49.022;12.114;2022-12-18T13:37:58;-1.90;99.50
18794;DHT22;29610;49.022;12.114;2022-12-18T13:40:55;-2.10;99.50
18794;DHT22;29610;49.022;12.114;2022-12-18T13:43:32;-2.20;99.90
18794;DHT22;29610;49.022;12.114;2022-12-18T13:46:23;-2.30;99.80
18794;DHT22;29610;49.022;12.114;2022-12-18T13:49:00;-2.40;99.90
18794;DHT22;29610;49.022;12.114;2022-12-18T13:51:33;-2.50;99.90
18794;DHT22;29610;49.022;12.114;2022-12-18T13:54:13;-2.50;99.90
18794;DHT22;29610;49.022;12.114;2022-12-18T13:56:49;-2.60;99.90
18794;DHT22;29610;49.022;12.114;2022-12-18T13:59:20;-3.00;99.90
18794;DHT22;29610;49.022;12.114;2022-12-18T14:01:54;-3.00;99.90
18794;DHT22;29610;49.022;12.114;2022-12-18T14:04:27;-3.20;99.90
18794;DHT22;29610;49.022;12.114;2022-12-18T14:07:01;-3.30;99.90
18794;DHT22;29610;49.022;12.114;2022-12-18T14:09:36;-3.30;99.90
18794;DHT22;29610;49.022;12.114;2022-12-18T14:12:15;-3.30;99.90
18794;DHT22;29610;49.022;12.114;2022-12-18T14:15:06;-3.50;99.90
18794;DHT22;29610;49.022;12.114;2022-12-18T14:17:50;-3.60;99.90
18794;DHT22;29610;49.022;12.114;2022-12-18T14:20:20;-3.70;99.90
18794;DHT22;29610;49.022;12.114;2022-12-18T14:22:49;-3.70;99.90
18794;DHT22;29610;49.022;12.114;2022-12-18T14:25:20;-3.70;99.90
18794;DHT22;29610;49.022;12.114;2022-12-18T14:27:52;-3.80;99.90
18794;DHT22;29610;49.022;12.114;2022-12-18T14:30:36;-3.80;99.90
18794;DHT22;29610;49.022;12.114;2022-12-18T14:33:12;-4.00;99.90
18794;DHT22;29610;49.022;12.114;2022-12-18T14:35:43;-4.10;99.90
18794;DHT22;29610;49.022;12.114;2022-12-18T14:38:25;-4.20;99.90
18794;DHT22;29610;49.022;12.114;2022-12-18T14:40:57;-4.30;99.90
18794;DHT22;29610;49.022;12.114;2022-12-18T14:43:28;-4.40;99.90
18794;DHT22;29610;49.022;12.114;2022-12-18T14:46:00;-4.50;99.90
18794;DHT22;29610;49.022;12.114;2022-12-18T14:48:38;-4.50;99.90
18794;DHT22;29610;49.022;12.114;2022-12-18T14:51:16;-4.60;99.90
18794;DHT22;29610;49.022;12.114;2022-12-18T14:53:48;-4.60;99.90
18794;DHT22;29610;49.022;12.114;2022-12-18T14:56:25;-4.70;99.90
18794;DHT22;29610;49.022;12.114;2022-12-18T14:58:56;-4.80;99.90
18794;DHT22;29610;49.022;12.114;2022-12-18T15:01:28;-4.90;99.90
18794;DHT22;29610;49.022;12.114;2022-12-18T15:04:03;-4.90;99.90
18794;DHT22;29610;49.022;12.114;2022-12-18T15:06:34;-5.00;99.90
18794;DHT22;29610;49.022;12.114;2022-12-18T15:09:06;-5.10;99.90
18794;DHT22;29610;49.022;12.114;2022-12-18T15:11:56;-5.20;99.90
18794;DHT22;29610;49.022;12.114;2022-12-18T15:14:34;-5.20;99.90
18794;DHT22;29610;49.022;12.114;2022-12-18T15:17:17;-5.20;99.90
18794;DHT22;29610;49.022;12.114;2022-12-18T15:19:51;-5.30;99.90
18794;DHT22;29610;49.022;12.114;2022-12-18T15:22:28;-5.30;99.90
18794;DHT22;29610;49.022;12.114;2022-12-18T15:24:59;-5.30;99.90
18794;DHT22;29610;49.022;12.114;2022-12-18T15:27:30;-5.30;99.90
18794;DHT22;29610;49.022;12.114;2022-12-18T15:30:17;-5.30;99.90
18794;DHT22;29610;49.022;12.114;2022-12-18T15:32:48;-5.30;99.90
18794;DHT22;29610;49.022;12.114;2022-12-18T15:35:22;-5.30;99.90
18794;DHT22;29610;49.022;12.114;2022-12-18T15:37:52;-5.30;99.90
18794;DHT22;29610;49.022;12.114;2022-12-18T15:40:22;-5.30;99.90
18794;DHT22;29610;49.022;12.114;2022-12-18T15:42:53;-5.30;99.90
18794;DHT22;29610;49.022;12.114;2022-12-18T15:45:40;-5.40;99.90
18794;DHT22;29610;49.022;12.114;2022-12-18T15:48:18;-5.40;99.90
18794;DHT22;29610;49.022;12.114;2022-12-18T15:50:53;-5.40;99.90
18794;DHT22;29610;49.022;12.114;2022-12-18T15:53:24;-5.50;99.90
18794;DHT22;29610;49.022;12.114;2022-12-18T15:55:56;-5.50;99.90
18794;DHT22;29610;49.022;12.114;2022-12-18T15:58:42;-5.60;99.90
18794;DHT22;29610;49.022;12.114;2022-12-18T16:01:11;-5.70;99.90